Time;durP1;ratioP1;P1;durP2;ratioP2;P2;SDS_P1;SDS_P2;PMS_P1;PMS_P2;Temp;Humidity;BMP_temperature;BMP_pressure;BME280_temperature;BME280_humidity;BME280_pressure;Samples;Min_cycle;Max_cycle;Signal;HPM_P1;HPM_P2
2021/11/21 00:00:16;;;;;;;25.70;16.30;;;8.50;83.40;;;;;;4922654;29;21115;-44
2021/11/21 00:02:43;;;;;;;25.33;16.43;;;8.60;83.40;;;;;;4921629;29;20951;-44
2021/11/21 00:05:12;;;;;;;27.63;16.13;;;8.60;83.30;;;;;;4922787;29;20485;-44
2021/11/21 00:07:39;;;;;;;26.80;16.03;;;8.60;83.30;;;;;;4921383;29;20472;-44
2021/11/21 00:10:07;;;;;;;27.13;17.50;;;8.50;83.50;;;;;;4921575;29;20457;-44
2021/11/21 00:12:34;;;;;;;26.80;17.27;;;8.50;83.30;;;;;;4919896;29;20828;-43
2021/11/21 00:15:01;;;;;;;26.87;16.00;;;8.50;83.50;;;;;;4920273;29;20465;-44
2021/11/21 00:17:27;;;;;;;22.40;14.33;;;8.60;83.40;;;;;;4903854;29;20874;-43
2021/11/21 00:19:54;;;;;;;25.13;15.03;;;8.60;83.30;;;;;;4904720;29;20528;-43
2021/11/21 00:22:21;;;;;;;22.53;14.93;;;8.60;83.30;;;;;;4921416;29;20466;-44
2021/11/21 00:24:48;;;;;;;28.20;17.83;;;8.50;83.50;;;;;;4919474;29;20490;-43
2021/11/21 00:27:15;;;;;;;20.63;15.77;;;8.50;83.60;;;;;;4920804;29;20488;-43
2021/11/21 00:29:41;;;;;;;26.43;15.27;;;8.50;83.90;;;;;;4919689;29;20473;-44
2021/11/21 00:32:09;;;;;;;27.97;15.00;;;8.50;84.10;;;;;;4907425;29;20485;-44
2021/11/21 00:34:36;;;;;;;31.43;16.47;;;8.50;84.20;;;;;;4918948;29;20467;-44
2021/11/21 00:37:03;;;;;;;26.50;16.20;;;8.40;84.50;;;;;;4904561;29;21070;-44
2021/11/21 00:39:30;;;;;;;26.90;15.33;;;8.40;84.90;;;;;;4921021;29;20858;-44
2021/11/21 00:41:57;;;;;;;32.90;15.97;;;8.40;84.80;;;;;;4920381;29;20475;-44
2021/11/21 00:44:24;;;;;;;26.87;14.80;;;8.40;85.20;;;;;;4903945;29;20877;-44
2021/11/21 00:46:51;;;;;;;28.30;16.30;;;8.50;84.80;;;;;;4919218;29;20464;-44
2021/11/21 00:49:18;;;;;;;28.50;16.10;;;8.40;84.80;;;;;;4889222;29;20479;-44
2021/11/21 00:51:49;;;;;;;29.17;15.60;;;8.40;85.30;;;;;;4921611;29;21657;-43
2021/11/21 00:57:01;;;;;;;32.30;18.20;;;8.40;84.90;;;;;;4920219;29;20487;-44
2021/11/21 00:59:28;;;;;;;30.27;18.30;;;8.40;85.10;;;;;;4904568;29;20471;-44
2021/11/21 01:01:55;;;;;;;34.33;18.37;;;8.40;85.00;;;;;;4921997;29;20474;-44
2021/11/21 01:04:22;;;;;;;29.57;17.23;;;8.30;85.30;;;;;;4922027;29;20498;-44
2021/11/21 01:06:49;;;;;;;30.87;17.67;;;8.30;85.50;;;;;;4919919;29;20462;-44
2021/11/21 01:09:18;;;;;;;27.77;16.07;;;8.30;85.60;;;;;;4905879;29;20536;-44
2021/11/21 01:11:45;;;;;;;30.80;16.50;;;8.30;85.80;;;;;;4907814;29;20475;-44
2021/11/21 01:14:11;;;;;;;32.50;17.00;;;8.30;85.60;;;;;;4921698;29;20551;-44
2021/11/21 01:16:38;;;;;;;34.40;18.83;;;8.40;85.50;;;;;;4904663;29;21002;-44
2021/11/21 01:19:05;;;;;;;33.30;18.67;;;8.40;85.40;;;;;;4922775;29;20473;-44
2021/11/21 01:21:33;;;;;;;28.57;16.10;;;8.40;85.50;;;;;;4918006;29;20471;-44
2021/11/21 01:24:00;;;;;;;31.53;17.60;;;8.30;85.80;;;;;;4919209;29;20469;-44
2021/11/21 01:26:27;;;;;;;30.57;17.07;;;8.40;85.70;;;;;;4902770;29;20552;-44
2021/11/21 01:28:54;;;;;;;28.20;17.03;;;8.40;85.50;;;;;;4918609;29;20831;-44
2021/11/21 01:31:21;;;;;;;33.90;17.97;;;8.30;85.70;;;;;;4919151;29;20465;-44
2021/11/21 01:33:48;;;;;;;27.77;15.23;;;8.30;85.90;;;;;;4918901;29;20468;-44
2021/11/21 01:36:15;;;;;;;32.47;18.40;;;8.20;86.00;;;;;;4923021;29;20525;-44
2021/11/21 01:38:43;;;;;;;36.50;18.13;;;8.20;86.30;;;;;;4923750;29;20492;-44
2021/11/21 01:41:11;;;;;;;33.33;17.17;;;8.20;86.40;;;;;;4920964;29;21144;-45
2021/11/21 01:43:39;;;;;;;30.60;17.37;;;8.20;86.60;;;;;;4925487;29;20464;-44
2021/11/21 01:46:05;;;;;;;27.30;17.20;;;8.20;86.60;;;;;;4925888;29;21038;-43
2021/11/21 01:48:34;;;;;;;31.03;18.57;;;8.20;86.80;;;;;;4926213;29;20460;-44
2021/11/21 01:51:05;;;;;;;32.23;15.93;;;8.20;86.90;;;;;;4925443;29;21138;-44
2021/11/21 01:53:32;;;;;;;31.33;15.80;;;8.20;86.90;;;;;;4925072;29;20468;-44
2021/11/21 01:55:58;;;;;;;36.57;17.50;;;8.20;86.90;;;;;;4926035;29;20481;-43
2021/11/21 01:58:25;;;;;;;26.93;16.70;;;8.30;86.90;;;;;;4926690;29;20500;-44
2021/11/21 02:00:53;;;;;;;31.40;18.07;;;8.30;86.90;;;;;;4907352;29;20469;-44
2021/11/21 02:03:20;;;;;;;30.23;15.50;;;8.30;86.90;;;;;;4904295;29;20956;-44
2021/11/21 02:05:48;;;;;;;25.13;14.60;;;8.20;87.10;;;;;;4922464;29;20496;-44
2021/11/21 02:08:16;;;;;;;27.53;14.67;;;8.30;87.10;;;;;;4923539;29;20483;-44
2021/11/21 02:10:42;;;;;;;24.80;13.63;;;8.30;86.90;;;;;;4907388;29;20478;-44
2021/11/21 02:13:10;;;;;;;24.40;13.43;;;8.30;86.90;;;;;;4924739;29;20488;-44
2021/11/21 02:15:41;;;;;;;24.03;15.53;;;8.30;86.90;;;;;;4920964;29;20508;-44
2021/11/21 02:18:08;;;;;;;28.00;17.23;;;8.30;86.70;;;;;;4927815;29;20475;-44
2021/11/21 02:20:35;;;;;;;30.57;16.40;;;8.30;86.70;;;;;;4927106;29;20464;-44
2021/11/21 02:23:04;;;;;;;22.77;13.57;;;8.30;86.90;;;;;;4911805;29;20648;-44
2021/11/21 02:25:31;;;;;;;27.00;15.70;;;8.20;87.10;;;;;;4912009;29;21020;-44
2021/11/21 02:27:58;;;;;;;21.90;13.93;;;8.20;87.00;;;;;;4925486;29;20449;-43
2021/11/21 02:30:25;;;;;;;27.27;13.97;;;8.20;87.10;;;;;;4924356;29;20488;-43
2021/11/21 02:32:53;;;;;;;23.13;13.00;;;8.30;87.00;;;;;;4906762;29;21020;-43
2021/11/21 02:35:21;;;;;;;22.00;12.50;;;8.30;87.10;;;;;;4924591;29;20471;-44
2021/11/21 02:37:49;;;;;;;29.00;13.60;;;8.30;86.90;;;;;;4923220;29;20469;-44
2021/11/21 02:40:17;;;;;;;26.37;14.00;;;8.30;86.70;;;;;;4906999;29;20559;-44
2021/11/21 02:42:44;;;;;;;23.57;13.00;;;8.30;86.70;;;;;;4923042;29;20468;-44
2021/11/21 02:45:17;;;;;;;25.90;14.73;;;8.30;86.70;;;;;;4909495;29;20484;-44
2021/11/21 02:47:45;;;;;;;20.20;12.07;;;8.30;86.70;;;;;;4923567;29;20465;-44
2021/11/21 02:50:16;;;;;;;26.07;14.10;;;8.30;86.70;;;;;;4910798;29;20479;-44
2021/11/21 02:52:44;;;;;;;25.80;13.57;;;8.30;86.20;;;;;;4926502;29;20471;-44
2021/11/21 02:55:11;;;;;;;18.20;11.53;;;8.30;86.20;;;;;;4927091;29;20548;-44
2021/11/21 02:57:38;;;;;;;23.97;12.80;;;8.20;86.80;;;;;;4910765;29;20453;-44
2021/11/21 03:00:07;;;;;;;21.03;11.70;;;8.20;87.00;;;;;;4907977;29;20532;-44
2021/11/21 03:02:37;;;;;;;23.13;12.97;;;8.20;87.20;;;;;;4927461;29;20488;-44
2021/11/21 03:05:04;;;;;;;22.13;12.23;;;8.20;87.20;;;;;;4926093;29;20481;-45
2021/11/21 03:07:31;;;;;;;21.47;12.17;;;8.20;87.10;;;;;;4923256;29;20468;-45
2021/11/21 03:09:58;;;;;;;21.47;12.00;;;8.20;86.70;;;;;;4925701;29;20972;-45
2021/11/21 03:12:25;;;;;;;17.93;11.00;;;8.30;86.30;;;;;;4924440;29;20949;-45
2021/11/21 03:14:52;;;;;;;17.77;10.97;;;8.20;86.70;;;;;;4911540;29;21349;-45
2021/11/21 03:17:20;;;;;;;21.63;12.20;;;8.20;86.60;;;;;;4919581;29;20456;-42
2021/11/21 03:19:47;;;;;;;19.83;11.50;;;8.20;86.60;;;;;;4910640;29;20510;-42
2021/11/21 03:22:14;;;;;;;38.90;21.10;;;8.30;86.40;;;;;;4910766;29;20460;-42
2021/11/21 03:24:41;;;;;;;34.03;17.33;;;8.30;86.30;;;;;;4907713;29;20477;-42
2021/11/21 03:27:08;;;;;;;20.63;12.93;;;8.30;86.30;;;;;;4909896;29;20666;-42
2021/11/21 03:29:35;;;;;;;22.17;12.43;;;8.30;86.60;;;;;;4909165;29;20467;-42
2021/11/21 03:32:02;;;;;;;22.23;11.27;;;8.20;86.60;;;;;;4906389;29;20475;-42
2021/11/21 03:34:30;;;;;;;26.87;12.80;;;8.20;86.70;;;;;;4898131;29;20952;-42
2021/11/21 03:36:57;;;;;;;23.43;11.77;;;8.30;86.40;;;;;;4910920;29;20469;-42
2021/11/21 03:39:24;;;;;;;26.10;12.57;;;8.20;86.30;;;;;;4909761;29;20471;-44
2021/11/21 03:41:51;;;;;;;25.43;13.67;;;8.20;86.70;;;;;;4910160;29;20460;-44
2021/11/21 03:44:18;;;;;;;21.70;12.90;;;8.20;86.50;;;;;;4910497;29;20467;-44
2021/11/21 03:46:44;;;;;;;23.27;12.70;;;8.20;86.60;;;;;;4907709;29;21026;-44
2021/11/21 03:49:11;;;;;;;23.37;13.13;;;8.20;86.50;;;;;;4909258;29;20464;-43
2021/11/21 03:51:39;;;;;;;20.03;12.43;;;8.10;86.80;;;;;;4907183;29;20477;-43
2021/11/21 03:54:05;;;;;;;19.90;12.63;;;8.10;87.10;;;;;;4900309;29;20480;-44
2021/11/21 03:56:32;;;;;;;21.23;13.40;;;8.00;87.50;;;;;;4890489;29;20968;-44
2021/11/21 03:58:59;;;;;;;20.10;11.63;;;8.00;87.60;;;;;;4910288;29;20465;-44
2021/11/21 04:01:26;;;;;;;20.43;12.37;;;8.10;87.60;;;;;;4896398;29;20507;-44
2021/11/21 04:03:52;;;;;;;21.27;11.53;;;8.10;87.60;;;;;;4907378;29;20458;-44
2021/11/21 04:06:20;;;;;;;21.00;13.50;;;8.10;87.50;;;;;;4909728;29;20999;-44
2021/11/21 04:08:46;;;;;;;21.20;12.67;;;8.10;87.50;;;;;;4909449;29;20473;-44
2021/11/21 04:11:13;;;;;;;21.97;14.43;;;8.10;87.50;;;;;;4910304;29;20938;-43
2021/11/21 04:13:40;;;;;;;20.30;11.73;;;8.10;87.50;;;;;;4907024;29;20468;-44
2021/11/21 04:16:06;;;;;;;24.30;13.40;;;8.20;87.30;;;;;;4907908;29;20461;-43
2021/11/21 04:18:33;;;;;;;25.50;12.93;;;8.20;87.10;;;;;;4907164;29;20464;-44
2021/11/21 04:21:01;;;;;;;19.77;11.80;;;8.20;87.20;;;;;;4909015;29;20460;-44
2021/11/21 04:23:30;;;;;;;20.23;13.00;;;8.20;87.30;;;;;;4890893;29;20476;-44
2021/11/21 04:25:58;;;;;;;20.77;12.57;;;8.20;87.20;;;;;;4910119;29;20493;-44
2021/11/21 04:28:26;;;;;;;20.17;12.80;;;8.20;87.10;;;;;;4893811;29;20456;-43
2021/11/21 04:30:53;;;;;;;18.27;11.70;;;8.20;86.90;;;;;;4908909;29;20468;-44
2021/11/21 04:33:24;;;;;;;21.13;13.20;;;8.20;87.00;;;;;;4909404;29;20452;-44
2021/11/21 04:35:51;;;;;;;18.77;10.93;;;8.20;86.80;;;;;;4909549;29;20469;-44
2021/11/21 04:38:20;;;;;;;20.10;11.97;;;8.20;86.60;;;;;;4910371;29;20479;-44
2021/11/21 04:40:47;;;;;;;17.47;11.60;;;8.20;86.50;;;;;;4910108;29;20551;-44
2021/11/21 04:43:15;;;;;;;16.73;10.63;;;8.20;86.00;;;;;;4909357;29;20468;-44
2021/11/21 04:45:42;;;;;;;16.33;10.20;;;8.20;86.00;;;;;;4909766;29;20859;-44
2021/11/21 04:48:09;;;;;;;14.17;9.80;;;8.20;86.00;;;;;;4911236;29;20457;-44
2021/11/21 04:50:36;;;;;;;16.63;10.27;;;8.20;86.20;;;;;;4907451;29;20465;-44
2021/11/21 04:53:04;;;;;;;14.67;10.63;;;8.20;86.20;;;;;;4909607;29;20452;-44
2021/11/21 04:55:31;;;;;;;12.57;8.97;;;8.20;85.40;;;;;;4908765;29;21352;-44
2021/11/21 04:57:57;;;;;;;12.73;9.07;;;8.20;85.40;;;;;;4911839;29;20459;-44
2021/11/21 05:00:25;;;;;;;11.40;8.90;;;8.20;85.20;;;;;;4908359;29;20461;-44
2021/11/21 05:02:52;;;;;;;12.17;8.77;;;8.20;84.70;;;;;;4907693;29;20516;-44
2021/11/21 05:05:22;;;;;;;14.23;9.90;;;8.20;84.30;;;;;;4907919;29;20541;-44
2021/11/21 05:07:50;;;;;;;12.33;8.83;;;8.20;84.60;;;;;;4891817;29;20777;-44
2021/11/21 05:10:21;;;;;;;10.03;8.57;;;8.10;84.80;;;;;;4891627;29;20558;-44
2021/11/21 05:12:49;;;;;;;17.43;11.57;;;8.10;84.70;;;;;;4891973;29;20449;-44
2021/11/21 05:15:19;;;;;;;12.53;9.27;;;8.20;84.60;;;;;;4909335;29;20457;-44
2021/11/21 05:17:48;;;;;;;14.73;10.00;;;8.10;84.70;;;;;;4908465;29;20452;-44
2021/11/21 05:20:17;;;;;;;16.70;11.50;;;8.10;84.80;;;;;;4908078;29;20461;-44
2021/11/21 05:22:45;;;;;;;13.93;9.60;;;8.10;85.00;;;;;;4908414;29;20489;-44
2021/11/21 05:25:13;;;;;;;18.53;11.07;;;8.10;84.80;;;;;;4893092;29;20457;-44
2021/11/21 05:27:46;;;;;;;17.23;11.07;;;8.00;84.70;;;;;;4889851;29;20456;-44
2021/11/21 05:30:14;;;;;;;17.03;12.67;;;8.00;84.70;;;;;;4887002;29;20465;-44
2021/11/21 05:32:42;;;;;;;15.50;11.67;;;8.10;84.50;;;;;;4910376;29;20452;-44
2021/11/21 05:35:08;;;;;;;15.20;10.80;;;8.00;84.60;;;;;;4909769;29;20453;-44
2021/11/21 05:37:36;;;;;;;16.00;11.40;;;8.00;84.70;;;;;;4908153;29;20449;-44
2021/11/21 05:40:05;;;;;;;17.50;10.70;;;8.00;84.60;;;;;;4907965;29;20460;-44
2021/11/21 05:42:32;;;;;;;19.20;12.57;;;8.00;84.80;;;;;;4908527;29;20453;-44
2021/11/21 05:44:58;;;;;;;17.80;10.57;;;8.00;85.00;;;;;;4907611;29;20810;-44
2021/11/21 05:47:25;;;;;;;18.23;10.93;;;8.00;85.10;;;;;;4892606;29;20520;-44
2021/11/21 05:49:53;;;;;;;17.40;11.20;;;8.00;84.90;;;;;;4906814;29;20471;-44
2021/11/21 05:52:19;;;;;;;16.23;10.53;;;8.00;85.10;;;;;;4892976;29;20457;-44
2021/11/21 05:54:47;;;;;;;18.77;10.93;;;8.00;84.80;;;;;;4906863;29;20858;-44
2021/11/21 05:57:14;;;;;;;16.77;10.97;;;8.00;84.90;;;;;;4908441;29;20460;-44
2021/11/21 05:59:41;;;;;;;18.43;12.50;;;8.00;84.50;;;;;;4890373;29;20468;-44
2021/11/21 06:02:08;;;;;;;14.37;9.17;;;8.00;84.60;;;;;;4905737;29;20495;-44
2021/11/21 06:04:35;;;;;;;14.60;9.73;;;8.00;84.40;;;;;;4903989;29;20549;-44
2021/11/21 06:07:02;;;;;;;14.40;10.33;;;8.00;84.30;;;;;;4903130;29;20522;-44
2021/11/21 06:09:29;;;;;;;16.43;9.73;;;8.00;84.30;;;;;;4901624;29;21118;-44
2021/11/21 06:11:56;;;;;;;15.50;9.87;;;8.00;84.40;;;;;;4902052;29;20467;-44
2021/11/21 06:14:23;;;;;;;13.07;8.63;;;8.00;84.10;;;;;;4903459;29;20463;-44
2021/11/21 06:16:50;;;;;;;14.10;9.30;;;8.00;84.10;;;;;;4903232;29;20464;-44
2021/11/21 06:19:17;;;;;;;15.73;9.83;;;7.90;84.60;;;;;;4885093;29;20473;-44
2021/11/21 06:21:44;;;;;;;12.20;8.57;;;8.00;84.60;;;;;;4900676;29;20469;-44
2021/11/21 06:24:10;;;;;;;14.13;9.40;;;8.00;84.60;;;;;;4887419;29;20483;-44
2021/11/21 06:26:37;;;;;;;11.63;7.70;;;7.90;84.50;;;;;;4916014;29;20524;-44
2021/11/21 06:29:04;;;;;;;11.37;8.30;;;7.90;84.40;;;;;;4905076;29;20476;-44
2021/11/21 06:31:31;;;;;;;12.73;8.00;;;8.00;84.10;;;;;;4889271;29;20579;-44
2021/11/21 06:33:57;;;;;;;13.17;8.07;;;7.90;84.30;;;;;;4886318;29;20523;-44
2021/11/21 06:36:24;;;;;;;15.37;9.40;;;7.90;84.40;;;;;;4920349;29;20976;-44
2021/11/21 06:38:51;;;;;;;15.00;8.60;;;7.90;84.60;;;;;;4888888;29;20674;-44
2021/11/21 06:41:20;;;;;;;15.07;8.70;;;7.90;84.40;;;;;;4903607;29;20555;-44
2021/11/21 06:43:46;;;;;;;13.00;8.50;;;7.90;84.70;;;;;;4903303;29;21128;-44
2021/11/21 06:46:15;;;;;;;15.10;8.97;;;7.90;84.70;;;;;;4908233;29;20877;-44
2021/11/21 06:48:42;;;;;;;15.43;9.37;;;7.90;84.80;;;;;;4905653;29;20475;-44
2021/11/21 06:51:09;;;;;;;12.70;8.00;;;7.90;84.90;;;;;;4905532;29;20988;-44
2021/11/21 06:53:37;;;;;;;14.03;9.20;;;7.90;85.10;;;;;;4902553;29;20453;-44
2021/11/21 06:56:04;;;;;;;15.00;8.27;;;7.90;85.10;;;;;;4906433;29;20482;-44
2021/11/21 06:58:31;;;;;;;13.03;9.10;;;7.90;85.20;;;;;;4897334;29;20495;-44
2021/11/21 07:00:58;;;;;;;10.87;7.83;;;7.90;85.30;;;;;;4906434;29;20465;-44
2021/11/21 07:03:25;;;;;;;18.17;9.40;;;7.90;85.00;;;;;;4895872;29;20852;-44
2021/11/21 07:05:52;;;;;;;15.63;9.00;;;7.90;84.70;;;;;;4908477;29;20472;-44
2021/11/21 07:08:18;;;;;;;13.50;9.43;;;7.90;84.50;;;;;;4892249;29;20461;-44
2021/11/21 07:10:46;;;;;;;11.20;8.53;;;7.90;84.50;;;;;;4903593;29;20465;-44
2021/11/21 07:13:13;;;;;;;13.27;9.00;;;7.80;84.70;;;;;;4910839;29;20543;-44
2021/11/21 07:15:40;;;;;;;10.60;7.30;;;7.80;84.90;;;;;;4911244;29;20460;-44
2021/11/21 07:18:07;;;;;;;14.77;9.00;;;7.90;85.10;;;;;;4909560;29;20472;-44
2021/11/21 07:20:34;;;;;;;21.17;10.83;;;7.80;85.20;;;;;;4903364;29;20549;-44
2021/11/21 07:23:01;;;;;;;13.33;9.93;;;7.80;85.10;;;;;;4904441;29;20466;-44
2021/11/21 07:25:28;;;;;;;15.83;10.47;;;7.80;85.20;;;;;;4886836;29;20590;-44
2021/11/21 07:27:55;;;;;;;19.30;9.20;;;7.80;85.30;;;;;;4893408;29;20493;-44
2021/11/21 07:30:23;;;;;;;13.17;9.53;;;7.80;85.20;;;;;;4906318;29;20560;-44
2021/11/21 07:32:53;;;;;;;11.93;8.67;;;7.80;85.10;;;;;;4910617;29;21035;-44
2021/11/21 07:35:22;;;;;;;13.07;9.57;;;7.90;84.40;;;;;;4908130;29;20464;-44
2021/11/21 07:37:49;;;;;;;14.47;9.53;;;7.90;84.20;;;;;;4908356;29;20568;-44
2021/11/21 07:40:17;;;;;;;12.70;9.60;;;7.80;84.30;;;;;;4907415;29;21394;-44
2021/11/21 07:42:45;;;;;;;13.47;8.50;;;7.80;84.50;;;;;;4910201;29;20464;-44
2021/11/21 07:45:13;;;;;;;15.77;9.93;;;7.80;84.40;;;;;;4909887;29;20473;-44
2021/11/21 07:47:40;;;;;;;13.20;8.10;;;7.80;84.40;;;;;;4908893;29;21018;-44
2021/11/21 07:50:08;;;;;;;10.03;8.20;;;7.80;84.50;;;;;;4909750;29;20469;-44
2021/11/21 07:52:35;;;;;;;11.90;8.40;;;7.80;84.40;;;;;;4908355;29;20475;-44
2021/11/21 07:55:02;;;;;;;13.60;8.73;;;7.80;83.80;;;;;;4906463;29;20475;-44
2021/11/21 07:57:29;;;;;;;12.47;8.20;;;7.80;83.90;;;;;;4889906;29;20460;-44
2021/11/21 07:59:56;;;;;;;11.73;7.93;;;7.80;84.20;;;;;;4910692;29;20960;-44
2021/11/21 08:02:23;;;;;;;13.07;9.77;;;7.80;84.20;;;;;;4874497;29;20961;-44
2021/11/21 08:04:50;;;;;;;15.67;8.77;;;7.80;83.90;;;;;;4909236;29;20452;-44
2021/11/21 08:07:16;;;;;;;13.20;8.00;;;7.70;84.10;;;;;;4908332;29;20500;-44
2021/11/21 08:09:43;;;;;;;13.43;8.47;;;7.70;84.20;;;;;;4920913;29;20999;-44
2021/11/21 08:12:10;;;;;;;14.57;8.50;;;7.70;84.00;;;;;;4921152;29;20758;-44
2021/11/21 08:14:38;;;;;;;13.50;8.80;;;7.60;84.50;;;;;;4905743;29;20465;-44
2021/11/21 08:17:05;;;;;;;21.47;11.00;;;7.70;84.60;;;;;;4904824;29;20504;-44
2021/11/21 08:19:32;;;;;;;26.60;16.60;;;7.60;84.50;;;;;;4891556;29;20464;-44
2021/11/21 08:21:59;;;;;;;18.50;10.80;;;7.90;89.50;;;;;;4908709;29;20461;-44
2021/11/21 08:24:27;;;;;;;12.20;8.30;;;8.10;85.30;;;;;;4908608;29;20464;-44
2021/11/21 08:26:54;;;;;;;13.17;8.10;;;8.00;84.80;;;;;;4896319;29;20511;-44
2021/11/21 08:29:21;;;;;;;12.70;7.70;;;7.90;85.00;;;;;;4907919;29;20479;-44
2021/11/21 08:31:57;;;;;;;12.53;7.90;;;7.80;84.50;;;;;;4892306;29;20551;-44
2021/11/21 08:34:26;;;;;;;11.77;7.03;;;7.90;84.10;;;;;;4908715;29;20948;-44
2021/11/21 08:36:53;;;;;;;13.63;7.90;;;7.90;84.10;;;;;;4909422;29;20472;-44
2021/11/21 08:39:22;;;;;;;12.03;7.80;;;7.90;84.20;;;;;;4908673;29;20471;-44
2021/11/21 08:41:51;;;;;;;13.57;9.07;;;7.90;84.00;;;;;;4907993;29;20475;-44
2021/11/21 08:44:18;;;;;;;14.03;8.43;;;7.90;83.30;;;;;;4909517;29;20473;-44
2021/11/21 08:46:46;;;;;;;13.33;8.40;;;7.90;83.30;;;;;;4909444;29;20492;-44
2021/11/21 08:49:14;;;;;;;14.40;8.03;;;7.80;83.90;;;;;;4908362;29;20453;-44
2021/11/21 08:51:43;;;;;;;14.70;7.43;;;7.80;84.10;;;;;;4908974;29;20468;-44
2021/11/21 08:54:11;;;;;;;14.40;7.70;;;7.80;84.30;;;;;;4909169;29;21123;-44
2021/11/21 08:56:38;;;;;;;10.50;6.40;;;7.90;83.90;;;;;;4889993;29;20497;-44
2021/11/21 08:59:05;;;;;;;11.43;7.43;;;7.90;83.60;;;;;;4904098;29;20480;-44
2021/11/21 09:01:33;;;;;;;8.23;5.83;;;7.90;83.90;;;;;;4890178;29;20808;-44
2021/11/21 09:04:00;;;;;;;11.67;6.10;;;7.80;84.10;;;;;;4906111;29;20717;-44
2021/11/21 09:06:27;;;;;;;6.90;5.40;;;7.90;83.80;;;;;;4885380;29;20477;-44
2021/11/21 09:08:55;;;;;;;9.80;6.67;;;7.90;84.10;;;;;;4905908;29;20476;-44
2021/11/21 09:11:22;;;;;;;9.47;7.67;;;7.80;84.60;;;;;;4901837;29;21004;-44
2021/11/21 09:13:49;;;;;;;14.87;8.17;;;7.80;85.00;;;;;;4904719;29;21031;-44
2021/11/21 09:16:17;;;;;;;10.30;7.80;;;7.80;85.10;;;;;;4901441;29;20464;-44
2021/11/21 09:18:44;;;;;;;13.20;6.80;;;7.80;85.40;;;;;;4906540;29;20837;-44
2021/11/21 09:21:11;;;;;;;10.53;6.70;;;7.90;85.40;;;;;;4901190;29;20977;-43
2021/11/21 09:23:38;;;;;;;13.67;7.07;;;7.90;85.30;;;;;;4904495;29;20464;-43
2021/11/21 09:26:06;;;;;;;10.17;6.90;;;8.00;86.00;;;;;;4904670;29;20472;-45
2021/11/21 09:28:33;;;;;;;11.27;6.37;;;8.10;84.80;;;;;;4904971;29;20497;-45
2021/11/21 09:31:00;;;;;;;12.77;7.90;;;8.10;84.40;;;;;;4910513;29;20456;-45
2021/11/21 09:33:28;;;;;;;11.00;7.80;;;8.10;84.70;;;;;;4906076;29;20464;-45
2021/11/21 09:35:55;;;;;;;11.90;7.00;;;8.20;84.80;;;;;;4895376;29;20471;-45
2021/11/21 09:38:24;;;;;;;8.47;5.93;;;8.20;84.80;;;;;;4906203;29;20477;-45
2021/11/21 09:40:51;;;;;;;14.57;6.90;;;8.20;84.80;;;;;;4909201;29;20461;-45
2021/11/21 09:43:19;;;;;;;9.17;5.80;;;8.30;84.90;;;;;;4906019;29;20467;-45
2021/11/21 09:45:46;;;;;;;8.67;6.03;;;8.30;85.00;;;;;;4910550;29;20954;-46
2021/11/21 09:48:12;;;;;;;8.57;5.87;;;8.40;84.90;;;;;;4894150;29;20489;-45
2021/11/21 09:50:41;;;;;;;10.10;5.97;;;8.40;85.00;;;;;;4910828;29;20461;-45
2021/11/21 09:53:09;;;;;;;9.27;6.13;;;8.40;84.50;;;;;;4921691;29;20471;-45
2021/11/21 09:55:36;;;;;;;9.90;5.63;;;8.40;84.60;;;;;;4909548;29;20492;-45
2021/11/21 09:58:04;;;;;;;7.90;5.63;;;8.40;84.10;;;;;;4909782;29;20465;-44
2021/11/21 10:00:33;;;;;;;9.20;6.00;;;8.40;84.10;;;;;;4909409;29;20759;-44
2021/11/21 10:03:14;;;;;;;10.47;6.27;;;8.40;84.40;;;;;;4877708;29;20472;-44
2021/11/21 10:05:54;;;;;;;13.03;5.90;;;8.50;83.20;;;;;;4894601;29;20869;-44
2021/11/21 10:08:31;;;;;;;10.50;6.50;;;8.40;83.30;;;;;;4890437;29;20570;-44
2021/11/21 10:11:08;;;;;;;8.23;5.70;;;8.50;83.50;;;;;;4912764;29;20460;-44
2021/11/21 10:13:42;;;;;;;7.70;5.37;;;8.50;83.40;;;;;;4912692;29;20520;-44
2021/11/21 10:16:21;;;;;;;8.47;5.37;;;8.50;82.60;;;;;;4893371;29;20470;-44
2021/11/21 10:19:03;;;;;;;7.60;5.17;;;8.50;82.40;;;;;;4915682;29;20828;-44
2021/11/21 10:21:38;;;;;;;9.00;5.70;;;8.40;82.80;;;;;;4909746;29;20471;-45
2021/11/21 10:24:30;;;;;;;6.80;4.90;;;8.40;83.10;;;;;;4913179;29;20507;-45
2021/11/21 10:27:12;;;;;;;7.43;5.20;;;8.30;83.50;;;;;;4916424;29;20481;-44
2021/11/21 10:30:02;;;;;;;9.50;6.03;;;8.30;83.20;;;;;;4908054;29;20508;-44
2021/11/21 10:32:31;;;;;;;6.53;4.60;;;8.40;83.10;;;;;;4913678;29;20494;-44
2021/11/21 10:35:05;;;;;;;9.00;6.10;;;8.40;82.80;;;;;;4911828;29;20472;-45
2021/11/21 10:37:37;;;;;;;9.00;4.93;;;8.40;83.10;;;;;;4915228;29;20488;-44
2021/11/21 10:40:16;;;;;;;7.23;4.80;;;8.50;82.70;;;;;;4915198;29;20462;-45
2021/11/21 10:42:47;;;;;;;6.40;4.80;;;8.60;82.30;;;;;;4914760;29;20477;-44
2021/11/21 10:45:20;;;;;;;7.57;5.20;;;8.50;82.50;;;;;;4910732;29;20967;-44
2021/11/21 10:47:58;;;;;;;7.73;4.70;;;8.50;82.60;;;;;;4912562;29;21019;-44
2021/11/21 10:50:39;;;;;;;8.20;5.27;;;8.60;82.40;;;;;;4914879;29;20547;-44
2021/11/21 10:53:09;;;;;;;9.10;5.30;;;8.60;82.10;;;;;;4896689;29;20495;-44
2021/11/21 10:55:36;;;;;;;4.50;4.00;;;8.60;82.10;;;;;;4912422;29;20487;-44
2021/11/21 10:58:14;;;;;;;7.00;4.80;;;8.50;82.60;;;;;;4925072;29;20460;-44
2021/11/21 11:00:42;;;;;;;6.33;4.63;;;8.50;82.80;;;;;;4912852;29;20584;-44
2021/11/21 11:03:17;;;;;;;8.93;4.43;;;8.60;83.00;;;;;;4900763;29;20519;-44
2021/11/21 11:05:44;;;;;;;7.07;4.80;;;8.60;82.90;;;;;;4911112;29;20465;-44
2021/11/21 11:08:13;;;;;;;5.60;3.90;;;8.60;83.20;;;;;;4911963;29;20496;-44
2021/11/21 11:10:40;;;;;;;10.13;4.20;;;8.70;83.20;;;;;;4914146;29;20453;-44
2021/11/21 11:13:15;;;;;;;6.37;4.37;;;8.70;82.60;;;;;;4916575;29;20456;-44
2021/11/21 11:15:45;;;;;;;6.23;4.40;;;8.70;82.80;;;;;;4914811;29;20454;-44
2021/11/21 11:18:16;;;;;;;6.60;4.97;;;8.70;83.60;;;;;;4915225;29;20465;-44
2021/11/21 11:20:46;;;;;;;6.13;4.00;;;8.80;84.00;;;;;;4908519;29;20844;-44
2021/11/21 11:23:17;;;;;;;4.80;4.13;;;8.80;84.10;;;;;;4917101;29;20914;-44
2021/11/21 11:25:45;;;;;;;7.20;4.63;;;8.80;84.10;;;;;;4914566;29;20472;-44
2021/11/21 11:28:33;;;;;;;4.50;3.50;;;8.80;84.20;;;;;;4900036;29;20489;-44
2021/11/21 11:31:26;;;;;;;6.10;4.20;;;8.80;84.00;;;;;;4913713;29;20509;-44
2021/11/21 11:33:55;;;;;;;6.17;3.07;;;8.90;83.30;;;;;;4915142;29;20815;-44
2021/11/21 11:36:24;;;;;;;4.53;3.57;;;8.90;82.90;;;;;;4914730;29;20500;-44
2021/11/21 11:39:05;;;;;;;8.53;4.30;;;8.80;83.10;;;;;;4915662;29;20468;-44
2021/11/21 11:41:53;;;;;;;4.20;3.60;;;8.80;83.30;;;;;;4914320;29;20473;-45
2021/11/21 11:44:20;;;;;;;4.70;3.50;;;8.90;82.90;;;;;;4914718;29;21055;-44
2021/11/21 11:46:47;;;;;;;5.20;4.03;;;8.90;82.70;;;;;;4913886;29;20543;-44
2021/11/21 11:49:14;;;;;;;4.63;4.00;;;8.80;83.20;;;;;;4913490;29;20508;-44
2021/11/21 11:51:41;;;;;;;6.20;5.07;;;8.80;83.40;;;;;;4915371;29;20461;-44
2021/11/21 11:54:19;;;;;;;6.03;4.53;;;8.80;83.70;;;;;;4914726;29;20936;-44
2021/11/21 11:56:52;;;;;;;4.50;3.93;;;8.90;83.50;;;;;;4910838;29;20490;-44
2021/11/21 11:59:26;;;;;;;4.77;3.83;;;8.90;83.30;;;;;;4915590;29;20837;-44
2021/11/21 12:01:54;;;;;;;6.83;4.50;;;8.90;83.40;;;;;;4913319;29;20471;-44
2021/11/21 12:04:25;;;;;;;6.60;4.20;;;8.90;83.20;;;;;;4926647;29;20473;-44
2021/11/21 12:06:54;;;;;;;4.13;3.40;;;8.90;83.20;;;;;;4914798;29;20473;-44
2021/11/21 12:09:21;;;;;;;5.70;3.50;;;8.90;83.40;;;;;;4896933;29;20487;-45
2021/11/21 12:12:11;;;;;;;6.63;3.87;;;8.90;83.40;;;;;;4899197;29;20461;-44
2021/11/21 12:14:39;;;;;;;4.70;4.27;;;8.90;83.40;;;;;;4912547;29;20765;-44
2021/11/21 12:17:07;;;;;;;4.87;3.87;;;8.90;83.50;;;;;;4899729;29;20461;-44
2021/11/21 12:19:43;;;;;;;5.67;4.13;;;8.90;83.60;;;;;;4917084;29;21138;-44
2021/11/21 12:22:34;;;;;;;4.60;3.40;;;9.10;83.00;;;;;;4915486;29;20467;-44
2021/11/21 12:25:03;;;;;;;6.23;4.30;;;9.10;82.70;;;;;;4912867;29;20464;-44
2021/11/21 12:27:40;;;;;;;4.70;3.63;;;9.10;82.70;;;;;;4902019;29;20587;-44
2021/11/21 12:30:22;;;;;;;8.00;4.73;;;9.10;83.00;;;;;;4916863;29;20473;-45
2021/11/21 12:32:53;;;;;;;5.30;3.83;;;9.10;82.70;;;;;;4914816;29;20504;-44
2021/11/21 12:35:34;;;;;;;6.63;4.27;;;9.10;82.50;;;;;;4900907;29;20461;-45
2021/11/21 12:38:32;;;;;;;6.10;4.10;;;9.10;82.40;;;;;;4915928;29;20465;-45
2021/11/21 12:41:01;;;;;;;5.00;4.10;;;9.00;82.60;;;;;;4914987;29;20453;-45
2021/11/21 12:43:28;;;;;;;4.40;3.93;;;9.00;82.70;;;;;;4916732;29;20464;-45
2021/11/21 12:46:01;;;;;;;4.80;3.47;;;9.00;83.00;;;;;;4914359;29;20824;-45
2021/11/21 12:48:30;;;;;;;7.07;3.90;;;9.10;82.80;;;;;;4913794;29;20491;-44
2021/11/21 12:50:58;;;;;;;15.27;9.97;;;9.00;82.90;;;;;;4918027;29;20459;-44
2021/11/21 12:53:36;;;;;;;11.00;7.10;;;9.00;83.60;;;;;;4915171;29;20532;-44
2021/11/21 12:56:17;;;;;;;9.43;6.40;;;9.10;83.70;;;;;;4916170;29;20480;-44